Flight Track Log - Related Links

Times and Time Zones

All times are in EDT time to prevent confusion due to time zone crossing. See the JBU917 flight status page for this flight to view local times or setup timezone preferences in your user account.

Time Position Orientation Groundspeed Altitude Reporting Facility
EDT Latitude Longitude Course Direction KTS MPH feet Rate Location/Type
Sun 05:58:21 AM 42.3500 -70.9833 160° South 154 177 800  Level KA90
Sun 05:59:33 AM 42.3167 -70.9167 124° Southeast 222 255 2,900 2,091 Climbing KA90
Sun 06:00:33 AM 42.3333 -70.8167 77° East 284 327 5,400 2,688 Climbing KA90
Sun 06:01:00 AM 42.3238 -70.6995 164° South  Level FlightAware Approximate
Sun 06:02:00 AM 42.2421 -70.6543 160° South  Level FlightAware Approximate
Sun 06:02:07 AM 42.2783 -70.6806 119° Southeast 293 337 9,800  Level Boston Center
Sun 06:03:00 AM 42.1584 -70.6125 160° South  Level FlightAware Approximate
Sun 06:03:07 AM 42.2006 -70.6436 161° South 276 318 11,800  Level Boston Center
Sun 06:04:07 AM 42.1089 -70.6294 173° South 297 342 14,300 2,350 Climbing Boston Center
Sun 06:05:07 AM 42.0197 -70.6683 198° South 306 352 16,500 2,150 Climbing Boston Center
Sun 06:06:07 AM 41.9286 -70.7100 199° South 328 377 18,600 1,950 Climbing Boston Center
Sun 06:07:07 AM 41.8292 -70.7544 198° South 353 406 20,400 1,700 Climbing Boston Center
Sun 06:08:07 AM 41.7322 -70.8211 207° Southwest 368 423 22,000 800 Climbing Boston Center
Sun 06:09:07 AM 41.6583 -70.8897 215° Southwest 368 423 22,000  Level Boston Center
Sun 06:10:07 AM 41.5694 -70.9556 209° Southwest 374 430 22,000  Level Boston Center
Sun 06:11:07 AM 41.4978 -71.0489 224° Southwest 369 425 22,000  Level Boston Center
Sun 06:12:07 AM 41.4344 -71.1525 231° Southwest 359 413 22,000  Level Boston Center
Sun 06:13:07 AM 41.3708 -71.2533 230° Southwest 364 419 22,000  Level Boston Center
Sun 06:14:07 AM 41.3094 -71.3594 232° Southwest 364 419 22,000  Level Boston Center
Sun 06:15:07 AM 41.2436 -71.4600 229° Southwest 364 419 22,000  Level Boston Center
Sun 06:16:07 AM 41.1800 -71.5631 231° Southwest 364 419 22,000  Level Boston Center
Sun 06:17:07 AM 41.1433 -71.6958 250° West 343 395 22,000  Level Boston Center
Sun 06:18:07 AM 41.1192 -71.8283 256° West 358 412 22,000  Level Boston Center
Sun 06:19:07 AM 41.0967 -71.9472 256° West 369 425 22,000 -500 Level Boston Center
Sun 06:20:07 AM 41.0744 -72.0767 257° West 369 425 21,000 -1,100 Descending Boston Center
Sun 06:21:07 AM 41.0539 -72.1758 255° West 369 425 19,800 -1,700 Descending Boston Center
Sun 06:22:07 AM 41.0228 -72.3356 256° West 357 411 17,600 -1,800 Descending Boston Center
Sun 06:23:07 AM 40.9978 -72.4594 255° West 357 411 16,200 -1,450 Descending Boston Center
Sun 06:24:07 AM 40.9728 -72.5831 255° West 357 411 14,700 -1,350 Descending Boston Center
Sun 06:25:07 AM 40.9517 -72.6903 255° West 352 405 13,500 -1,320 Descending Boston Center
Sun 06:25:47 AM 40.9333 -72.7667 252° West 295 339 12,500 -900 Descending New York TRACON
Sun 06:26:47 AM 40.9000 -72.8500 242° Southwest 269 310 12,000 -700 Descending New York TRACON
Sun 06:27:47 AM 40.8667 -72.9333 242° Southwest 268 308 11,100 -1,350 Descending New York TRACON
Sun 06:28:47 AM 40.8500 -73.0333 258° West 264 304 9,300 -1,095 Descending New York TRACON
Sun 06:29:53 AM 40.8000 -73.1167 232° Southwest 266 306 8,800 -1,000 Descending New York TRACON
Sun 06:30:47 AM 40.7833 -73.2000 255° West 264 304 7,300 -1,700 Descending New York TRACON
Sun 06:31:53 AM 40.7667 -73.3000 258° West 266 306 5,400 -1,381 Descending New York TRACON
Sun 06:32:53 AM 40.7667 -73.4000 270° West 262 302 4,400 -1,150 Descending New York TRACON
Sun 06:33:53 AM 40.7500 -73.5000 258° West 260 299 3,100 -850 Descending New York TRACON
Sun 06:34:53 AM 40.7500 -73.5833 270° West 218 251 2,700 -550 Descending New York TRACON
Sun 06:35:53 AM 40.7500 -73.6500 270° West 211 243 2,000 -500 Descending New York TRACON
Sun 06:36:53 AM 40.7167 -73.7000 229° Southwest 147 169 1,700 -500 Descending New York TRACON
Sun 06:37:53 AM 40.6833 -73.7167 201° Southwest 139 160 1,000 -700 Descending New York TRACON
Sun 06:38:53 AM 40.6500 -73.7500 217° Southwest 141 162 300 -700 Descending New York TRACON
Sun 06:40:00 AM 40.6333 -73.7667 North  Level FlightAware Approximate
Sun 06:47:00 AM 40.6398 -73.7789 North  Level Estimated
Sun 06:48:00 AM 40.6398 -73.7789 North  Level Estimated

Login

Don't have an account? Register now (free) for customized features, flight alerts, and more!